SEPTEMBER 29th, 2016

 

METAR SMJP 292000Z 13004KT 090V160 9999 FEW030CB SCT045 33/20 Q1008 NOSIG=

METAR SMZO 292000Z 06005KT 9999 FEW030 31/22 Q1008 NOSIG=

METAR SMZO 292000Z 06010KT 9999 FEW025CB 30/25 Q1009=

METAR SMST 292000Z NIL=